createdAt,value
2023-01-19T00:01:45.822Z,16.53
2023-01-19T00:04:15.847Z,17.67
2023-01-19T00:06:45.683Z,18.05
2023-01-19T00:09:15.487Z,20.14
2023-01-19T00:11:45.504Z,19.19
2023-01-19T00:14:15.262Z,18.05
2023-01-19T00:16:45.006Z,16.72
2023-01-19T00:19:14.799Z,17.10
2023-01-19T00:21:44.554Z,15.96
2023-01-19T00:24:14.936Z,16.72
2023-01-19T00:26:44.685Z,18.62
2023-01-19T00:29:15.721Z,16.72
2023-01-19T00:31:44.922Z,16.15
2023-01-19T00:34:14.743Z,16.72
2023-01-19T00:36:44.496Z,15.58
2023-01-19T00:39:14.303Z,16.91
2023-01-19T00:42:02.638Z,15.39
2023-01-19T00:44:32.421Z,16.15
2023-01-19T00:47:04.797Z,15.77
2023-01-19T00:49:34.591Z,15.96
2023-01-19T00:52:04.745Z,16.91
2023-01-19T00:54:34.580Z,17.48
2023-01-19T00:57:04.835Z,18.05
2023-01-19T00:59:37.249Z,18.05
2023-01-19T01:02:08.620Z,17.86
2023-01-19T01:04:35.745Z,15.39
2023-01-19T01:07:05.789Z,15.96
2023-01-19T01:09:35.586Z,16.15
2023-01-19T01:12:06.891Z,17.29
2023-01-19T01:14:35.519Z,14.63
2023-01-19T01:17:05.708Z,15.96
2023-01-19T01:19:35.638Z,15.58
2023-01-19T01:22:05.947Z,17.86
2023-01-19T01:24:36.267Z,16.15
2023-01-19T01:27:06.027Z,16.15
2023-01-19T01:29:36.190Z,15.96
2023-01-19T01:32:06.208Z,15.58
2023-01-19T01:34:36.037Z,16.34
2023-01-19T01:37:09.308Z,17.10
2023-01-19T01:39:39.136Z,15.58
2023-01-19T01:42:24.651Z,17.67
2023-01-19T01:44:57.029Z,17.86
2023-01-19T01:47:48.721Z,18.05
2023-01-19T01:50:28.565Z,17.29
2023-01-19T01:53:14.273Z,18.62
2023-01-19T01:55:49.652Z,16.53
2023-01-19T01:58:19.443Z,15.77
2023-01-19T02:01:07.824Z,14.44
2023-01-19T02:03:37.990Z,15.01
2023-01-19T02:06:09.972Z,14.06
2023-01-19T02:09:12.415Z,17.86
2023-01-19T02:12:01.396Z,17.67
2023-01-19T02:14:31.175Z,17.48
2023-01-19T02:17:01.322Z,15.96
2023-01-19T02:19:40.757Z,18.24
2023-01-19T02:22:24.951Z,18.62
2023-01-19T02:24:54.332Z,19.00
2023-01-19T02:27:22.440Z,19.38
2023-01-19T02:29:50.840Z,19.76
2023-01-19T02:32:19.192Z,21.28
2023-01-19T02:34:47.591Z,22.23
2023-01-19T02:37:18.997Z,21.66
2023-01-19T02:39:53.245Z,20.71
2023-01-19T02:42:32.090Z,18.24
2023-01-19T02:45:06.975Z,20.33
2023-01-19T02:47:45.016Z,21.28
2023-01-19T02:50:50.457Z,19.19
2023-01-19T02:53:47.609Z,20.71
2023-01-19T02:56:29.333Z,16.34
2023-01-19T02:59:34.507Z,17.86
2023-01-19T03:02:27.645Z,19.57
2023-01-19T03:05:41.552Z,18.24
2023-01-19T03:08:22.702Z,18.81
2023-01-19T03:11:04.848Z,18.81
2023-01-19T03:14:02.263Z,18.43
2023-01-19T03:16:48.523Z,17.29
2023-01-19T03:19:36.637Z,16.91
2023-01-19T03:22:22.186Z,18.62
2023-01-19T03:24:58.346Z,19.38
2023-01-19T03:27:41.091Z,17.86
2023-01-19T03:30:18.600Z,18.24
2023-01-19T03:32:56.493Z,17.67
2023-01-19T03:35:31.814Z,16.72
2023-01-19T03:38:09.982Z,19.95
2023-01-19T03:40:41.741Z,17.86
2023-01-19T03:43:15.775Z,17.86
2023-01-19T03:45:46.798Z,16.34
2023-01-19T03:48:17.379Z,17.67
2023-01-19T03:50:47.601Z,17.86
2023-01-19T03:53:20.297Z,16.72
2023-01-19T03:55:51.886Z,17.67
2023-01-19T03:58:22.404Z,16.15
2023-01-19T04:00:52.478Z,19.57
2023-01-19T04:03:22.333Z,16.91
2023-01-19T04:05:52.191Z,15.58
2023-01-19T04:08:21.965Z,16.53
2023-01-19T04:10:51.780Z,17.10
2023-01-19T04:13:21.730Z,19.76
2023-01-19T04:15:51.697Z,15.20
2023-01-19T04:18:21.537Z,16.34
2023-01-19T04:20:51.332Z,19.00
2023-01-19T04:23:21.832Z,17.29
2023-01-19T04:25:58.827Z,17.29
2023-01-19T04:28:29.120Z,16.15
2023-01-19T04:30:57.972Z,18.24
2023-01-19T04:33:26.919Z,18.62
2023-01-19T04:35:55.208Z,16.53
2023-01-19T04:38:24.889Z,18.43
2023-01-19T04:40:55.072Z,14.25
2023-01-19T04:43:24.276Z,19.57
2023-01-19T04:45:53.975Z,18.24
2023-01-19T04:48:23.925Z,17.10
2023-01-19T04:50:53.908Z,16.91
2023-01-19T04:53:23.976Z,17.86
2023-01-19T04:55:55.453Z,17.10
2023-01-19T04:58:25.208Z,17.10
2023-01-19T05:00:55.313Z,17.48
2023-01-19T05:03:26.577Z,19.19
2023-01-19T05:05:56.499Z,19.76
2023-01-19T05:08:26.296Z,19.19
2023-01-19T05:10:57.547Z,19.57
2023-01-19T05:13:27.377Z,18.05
2023-01-19T05:15:57.165Z,20.90
2023-01-19T05:18:27.023Z,19.19
2023-01-19T05:20:56.802Z,21.09
2023-01-19T05:23:26.620Z,19.00
2023-01-19T05:25:56.787Z,19.95
2023-01-19T05:28:28.904Z,19.57
2023-01-19T05:30:59.272Z,19.76
2023-01-19T05:33:29.464Z,18.62
2023-01-19T05:35:59.440Z,20.33
2023-01-19T05:38:34.910Z,18.05
2023-01-19T05:41:05.430Z,20.14
2023-01-19T05:43:35.226Z,18.24
2023-01-19T05:46:05.685Z,19.38
2023-01-19T05:48:35.584Z,18.62
2023-01-19T05:51:06.099Z,19.19
2023-01-19T05:53:35.837Z,19.95
2023-01-19T05:56:09.212Z,25.65
2023-01-19T05:58:39.664Z,24.13
2023-01-19T06:01:10.804Z,22.42
2023-01-19T06:03:41.002Z,20.52
2023-01-19T06:06:11.805Z,20.33
2023-01-19T06:08:42.428Z,16.15
2023-01-19T06:11:10.251Z,17.48
2023-01-19T06:13:42.323Z,17.86
2023-01-19T06:16:11.780Z,16.72
2023-01-19T06:18:41.620Z,19.57
2023-01-19T06:21:13.612Z,20.52
2023-01-19T06:23:43.376Z,18.43
2023-01-19T06:26:13.637Z,20.52
2023-01-19T06:28:43.421Z,19.00
2023-01-19T06:31:13.170Z,17.67
2023-01-19T06:33:43.099Z,19.95
2023-01-19T06:36:13.152Z,17.67
2023-01-19T06:38:43.249Z,18.62
2023-01-19T06:41:13.145Z,16.15
2023-01-19T06:43:42.914Z,17.48
2023-01-19T06:46:13.762Z,19.19
2023-01-19T06:48:43.660Z,21.09
2023-01-19T06:51:13.548Z,17.86
2023-01-19T06:53:43.780Z,15.58
2023-01-19T06:56:13.813Z,16.15
2023-01-19T06:58:43.821Z,14.63
2023-01-19T07:01:13.901Z,14.44
2023-01-19T07:03:46.102Z,14.82
2023-01-19T07:06:16.526Z,15.20
2023-01-19T07:08:46.372Z,16.34
2023-01-19T07:11:25.306Z,15.77
2023-01-19T07:14:00.199Z,14.63
2023-01-19T07:16:27.773Z,15.96
2023-01-19T07:18:57.015Z,14.44
2023-01-19T07:21:29.193Z,14.63
2023-01-19T07:23:57.863Z,18.05
2023-01-19T07:26:28.032Z,17.10
2023-01-19T07:28:57.248Z,15.39
2023-01-19T07:31:25.848Z,15.01
2023-01-19T07:33:54.334Z,14.44
2023-01-19T07:36:22.889Z,14.25
2023-01-19T07:38:51.181Z,15.01
2023-01-19T07:41:19.576Z,14.25
2023-01-19T07:43:48.087Z,12.73
2023-01-19T07:46:16.505Z,13.87
2023-01-19T07:48:44.961Z,15.39
2023-01-19T07:51:17.956Z,14.44
2023-01-19T07:53:46.166Z,14.06
2023-01-19T07:56:13.292Z,13.87
2023-01-19T07:58:41.770Z,13.11
2023-01-19T08:01:13.196Z,12.35
2023-01-19T08:03:43.603Z,15.39
2023-01-19T08:06:27.574Z,13.87
2023-01-19T08:08:56.762Z,12.73
2023-01-19T08:11:26.874Z,12.92
2023-01-19T08:13:56.671Z,13.49
2023-01-19T08:16:27.864Z,14.63
2023-01-19T08:18:56.886Z,11.97
2023-01-19T08:21:28.097Z,9.50
2023-01-19T08:23:57.998Z,11.40
2023-01-19T08:26:33.263Z,11.02
2023-01-19T08:29:05.166Z,10.83
2023-01-19T08:31:33.281Z,11.02
2023-01-19T08:34:00.636Z,12.35
2023-01-19T08:36:30.451Z,14.25
2023-01-19T08:39:00.545Z,12.73
2023-01-19T08:41:30.317Z,11.97
2023-01-19T08:44:02.993Z,10.26
2023-01-19T08:46:32.928Z,10.64
2023-01-19T08:49:02.779Z,9.12
2023-01-19T08:51:32.704Z,9.50
2023-01-19T08:54:02.564Z,10.64
2023-01-19T08:56:32.497Z,13.11
2023-01-19T08:59:09.487Z,13.30
2023-01-19T09:01:41.529Z,11.40
2023-01-19T09:04:11.528Z,9.50
2023-01-19T09:06:41.400Z,12.73
2023-01-19T09:09:09.684Z,10.64
2023-01-19T09:11:36.776Z,11.78
2023-01-19T09:14:05.653Z,11.21
2023-01-19T09:16:32.425Z,10.07
2023-01-19T09:19:00.971Z,10.64
2023-01-19T09:21:29.386Z,10.64
2023-01-19T09:23:57.928Z,9.12
2023-01-19T09:26:27.048Z,10.07
2023-01-19T09:28:54.597Z,8.93
2023-01-19T09:31:23.751Z,9.88
2023-01-19T09:33:51.387Z,10.64
2023-01-19T09:36:19.913Z,11.02
2023-01-19T09:38:49.638Z,10.07
2023-01-19T09:41:23.026Z,11.97
2023-01-19T09:44:00.409Z,11.40
2023-01-19T09:46:41.699Z,10.26
2023-01-19T09:49:21.500Z,10.07
2023-01-19T09:51:52.149Z,11.59
2023-01-19T09:54:56.831Z,10.83
2023-01-19T09:57:28.159Z,10.45
2023-01-19T09:59:59.720Z,11.02
2023-01-19T10:02:48.591Z,10.64
2023-01-19T10:05:31.909Z,10.64
2023-01-19T10:08:37.021Z,10.83
2023-01-19T10:11:22.857Z,12.16
2023-01-19T10:13:54.196Z,10.83
2023-01-19T10:16:46.879Z,13.30
2023-01-19T10:19:30.937Z,10.64
2023-01-19T10:22:22.190Z,10.26
2023-01-19T10:24:58.710Z,13.11
2023-01-19T10:27:31.910Z,10.07
2023-01-19T10:30:02.420Z,11.59
2023-01-19T10:32:38.682Z,11.97
2023-01-19T10:35:25.871Z,10.07
2023-01-19T10:38:01.978Z,12.16
2023-01-19T10:40:49.539Z,10.07
2023-01-19T10:43:34.564Z,12.54
2023-01-19T10:46:18.097Z,11.78
2023-01-19T10:48:52.434Z,11.97
2023-01-19T10:51:23.363Z,11.02
2023-01-19T10:54:05.189Z,12.92
2023-01-19T10:56:38.373Z,11.59
2023-01-19T10:59:47.802Z,12.92
2023-01-19T11:02:30.698Z,9.88
2023-01-19T11:05:23.677Z,11.59
2023-01-19T11:07:52.595Z,11.59
2023-01-19T11:10:30.042Z,11.21
2023-01-19T11:13:15.671Z,12.73
2023-01-19T11:15:54.476Z,12.35
2023-01-19T11:18:40.272Z,13.11
2023-01-19T11:21:16.393Z,12.73
2023-01-19T11:23:54.655Z,12.16
2023-01-19T11:26:31.201Z,12.16
2023-01-19T11:29:04.566Z,11.97
2023-01-19T11:31:35.992Z,13.49
2023-01-19T11:34:32.810Z,13.30
2023-01-19T11:37:26.827Z,13.30
2023-01-19T11:40:00.295Z,10.45
2023-01-19T11:42:33.194Z,12.92
2023-01-19T11:45:26.942Z,13.87
2023-01-19T11:47:57.382Z,12.92
2023-01-19T11:50:44.819Z,13.87
2023-01-19T11:53:29.170Z,12.35
2023-01-19T11:56:11.325Z,12.54
2023-01-19T11:58:47.396Z,13.87
2023-01-19T12:01:24.921Z,13.30
2023-01-19T12:04:21.757Z,13.49
2023-01-19T12:06:56.409Z,13.87
2023-01-19T12:09:39.072Z,13.68
2023-01-19T12:12:27.961Z,14.82
2023-01-19T12:15:23.558Z,13.68
2023-01-19T12:17:58.345Z,14.44
2023-01-19T12:20:47.227Z,16.34
2023-01-19T12:24:16.735Z,13.49
2023-01-19T12:27:05.214Z,13.87
2023-01-19T12:29:36.646Z,11.78
2023-01-19T12:32:16.694Z,14.44
2023-01-19T12:34:47.630Z,15.39
2023-01-19T12:37:42.901Z,12.54
2023-01-19T12:40:28.564Z,15.77
2023-01-19T12:43:06.037Z,14.63
2023-01-19T12:45:39.716Z,13.11
2023-01-19T12:48:26.046Z,13.68
2023-01-19T12:50:55.853Z,12.73
2023-01-19T12:53:26.839Z,14.06
2023-01-19T12:56:08.647Z,15.96
2023-01-19T12:58:38.426Z,14.25
2023-01-19T13:01:28.670Z,13.87
2023-01-19T13:04:07.628Z,13.68
2023-01-19T13:06:49.675Z,15.39
2023-01-19T13:09:38.117Z,15.01
2023-01-19T13:12:21.164Z,15.01
2023-01-19T13:15:11.725Z,14.25
2023-01-19T13:18:01.548Z,13.87
2023-01-19T13:20:53.067Z,15.58
2023-01-19T13:23:51.646Z,16.34
2023-01-19T13:27:03.534Z,15.20
2023-01-19T13:29:42.772Z,15.01
2023-01-19T13:32:21.000Z,13.87
2023-01-19T13:35:01.758Z,14.63
2023-01-19T13:37:41.696Z,13.30
2023-01-19T13:40:24.898Z,15.58
2023-01-19T13:42:55.362Z,15.39
2023-01-19T13:45:34.220Z,14.44
2023-01-19T13:48:14.976Z,15.58
2023-01-19T13:51:05.752Z,15.01
2023-01-19T13:53:36.622Z,15.01
2023-01-19T13:56:21.899Z,13.11
2023-01-19T13:59:18.196Z,16.34
2023-01-19T14:01:47.143Z,15.01
2023-01-19T14:04:31.255Z,15.01
2023-01-19T14:07:04.856Z,13.11
2023-01-19T14:09:33.211Z,13.49
2023-01-19T14:12:18.549Z,14.06
2023-01-19T14:14:48.525Z,14.06
2023-01-19T14:17:27.390Z,16.53
2023-01-19T14:20:01.009Z,15.39
2023-01-19T14:23:00.107Z,14.63
2023-01-19T14:25:34.758Z,14.25
2023-01-19T14:28:43.538Z,16.34
2023-01-19T14:31:33.408Z,15.58
2023-01-19T14:34:03.274Z,16.91
2023-01-19T14:36:39.856Z,15.39
2023-01-19T14:39:24.554Z,15.96
2023-01-19T14:41:57.454Z,15.96
2023-01-19T14:44:40.180Z,16.72
2023-01-19T14:47:29.433Z,14.44
2023-01-19T14:50:20.187Z,15.58
2023-01-19T14:53:00.813Z,14.82
2023-01-19T14:55:47.744Z,14.06
2023-01-19T14:58:21.717Z,14.63
2023-01-19T15:00:55.769Z,18.05
2023-01-19T15:03:43.553Z,15.77
2023-01-19T15:06:18.689Z,14.63
2023-01-19T15:08:47.160Z,13.49
2023-01-19T15:11:33.609Z,16.15
2023-01-19T15:14:03.841Z,15.96
2023-01-19T15:16:34.685Z,15.39
2023-01-19T15:19:04.643Z,13.30
2023-01-19T15:21:34.392Z,17.86
2023-01-19T15:24:04.584Z,16.91
2023-01-19T15:26:35.865Z,15.39
2023-01-19T15:29:24.462Z,16.53
2023-01-19T15:31:54.382Z,15.77
2023-01-19T15:34:24.224Z,15.20
2023-01-19T15:36:53.991Z,14.82
2023-01-19T15:39:23.705Z,15.77
2023-01-19T15:41:53.671Z,15.39
2023-01-19T15:44:23.520Z,14.25
2023-01-19T15:46:54.658Z,15.77
2023-01-19T15:49:25.017Z,15.77
2023-01-19T15:51:54.747Z,14.63
2023-01-19T15:54:24.515Z,14.63
2023-01-19T15:56:54.335Z,14.06
2023-01-19T15:59:24.124Z,15.20
2023-01-19T16:01:54.112Z,11.97
2023-01-19T16:04:22.353Z,13.87
2023-01-19T16:06:50.782Z,16.72
2023-01-19T16:09:20.165Z,15.39
2023-01-19T16:11:47.689Z,14.25
2023-01-19T16:14:17.500Z,15.96
2023-01-19T16:16:47.540Z,16.15
2023-01-19T16:19:16.113Z,16.34
2023-01-19T16:21:44.291Z,16.15
2023-01-19T16:24:12.851Z,16.34
2023-01-19T16:26:41.096Z,14.63
2023-01-19T16:29:11.031Z,16.15
2023-01-19T16:31:40.642Z,13.68
2023-01-19T16:34:11.239Z,17.48
2023-01-19T16:36:42.669Z,15.39
2023-01-19T16:39:15.137Z,14.25
2023-01-19T16:41:45.354Z,14.25
2023-01-19T16:44:16.834Z,18.81
2023-01-19T16:46:49.674Z,16.34
2023-01-19T16:49:22.961Z,16.72
2023-01-19T16:54:15.468Z,15.77
2023-01-19T16:56:46.162Z,15.96
2023-01-19T16:59:18.524Z,11.78
2023-01-19T17:01:51.037Z,15.96
2023-01-19T17:04:23.538Z,16.15
2023-01-19T17:06:55.068Z,16.34
2023-01-19T17:09:24.917Z,13.30
2023-01-19T17:11:54.829Z,14.44
2023-01-19T17:14:24.935Z,13.87
2023-01-19T17:16:54.719Z,13.87
2023-01-19T17:19:24.448Z,15.20
2023-01-19T17:21:54.196Z,14.63
2023-01-19T17:24:23.960Z,14.06
2023-01-19T17:26:53.984Z,16.15
2023-01-19T17:29:24.302Z,16.91
2023-01-19T17:31:54.025Z,15.39
2023-01-19T17:34:23.740Z,14.63
2023-01-19T17:36:54.137Z,13.30
2023-01-19T17:39:23.903Z,14.06
2023-01-19T17:41:53.721Z,15.39
2023-01-19T17:44:23.751Z,15.77
2023-01-19T17:46:53.587Z,15.77
2023-01-19T17:49:23.403Z,16.15
2023-01-19T17:51:53.555Z,16.91
2023-01-19T17:54:23.357Z,15.58
2023-01-19T17:56:51.731Z,15.58
2023-01-19T17:59:20.138Z,15.58
2023-01-19T18:01:49.586Z,14.44
2023-01-19T18:04:17.902Z,16.91
2023-01-19T18:06:47.296Z,18.43
2023-01-19T18:09:14.833Z,18.43
2023-01-19T18:11:43.281Z,17.48
2023-01-19T18:14:11.637Z,18.24
2023-01-19T18:16:40.040Z,16.72
2023-01-19T18:19:08.542Z,17.86
2023-01-19T18:21:38.092Z,17.86
2023-01-19T18:24:06.596Z,17.67
2023-01-19T18:26:35.544Z,18.05
2023-01-19T18:29:05.659Z,18.43
2023-01-19T18:31:35.525Z,17.10
2023-01-19T18:34:05.373Z,16.91
2023-01-19T18:36:35.752Z,17.67
2023-01-19T18:39:05.609Z,16.34
2023-01-19T18:41:41.622Z,15.58
2023-01-19T18:44:12.156Z,15.20
2023-01-19T18:46:41.955Z,17.67
2023-01-19T18:49:11.895Z,19.57
2023-01-19T18:51:42.021Z,17.29
2023-01-19T18:54:12.159Z,21.85
2023-01-19T18:56:42.002Z,17.29
2023-01-19T18:59:11.989Z,16.53
2023-01-19T19:01:41.945Z,16.15
2023-01-19T19:04:12.069Z,14.82
2023-01-19T19:06:42.069Z,19.00
2023-01-19T19:09:11.967Z,15.01
2023-01-19T19:11:41.775Z,15.58
2023-01-19T19:14:11.632Z,15.20
2023-01-19T19:16:41.366Z,16.34
2023-01-19T19:19:15.172Z,15.01
2023-01-19T19:21:44.936Z,14.63
2023-01-19T19:24:14.800Z,15.96
2023-01-19T19:26:44.606Z,15.58
2023-01-19T19:29:14.486Z,15.01
2023-01-19T19:31:45.134Z,17.48
2023-01-19T19:34:15.204Z,14.06
2023-01-19T19:36:44.970Z,16.34
2023-01-19T19:39:14.820Z,16.15
2023-01-19T19:41:44.590Z,16.34
2023-01-19T19:44:14.414Z,16.72
2023-01-19T19:46:44.626Z,15.20
2023-01-19T19:49:16.522Z,15.77
2023-01-19T19:51:46.753Z,16.34
2023-01-19T19:54:16.547Z,14.25
2023-01-19T19:56:47.399Z,16.34
2023-01-19T19:59:14.696Z,17.48
2023-01-19T20:01:45.062Z,18.24
2023-01-19T20:04:14.708Z,18.05
2023-01-19T20:06:44.697Z,15.96
2023-01-19T20:09:16.772Z,16.53
2023-01-19T20:11:49.065Z,17.10
2023-01-19T20:14:18.968Z,16.15
2023-01-19T20:16:48.763Z,19.00
2023-01-19T20:19:18.537Z,15.96
2023-01-19T20:21:48.506Z,16.15
2023-01-19T20:24:20.631Z,14.82
2023-01-19T20:26:53.024Z,15.77
2023-01-19T20:29:23.183Z,17.10
2023-01-19T20:31:56.341Z,15.39
2023-01-19T20:34:33.038Z,15.01
2023-01-19T20:37:04.727Z,13.87
2023-01-19T20:39:36.777Z,14.44
2023-01-19T20:42:15.354Z,15.77
2023-01-19T20:44:44.611Z,14.06
2023-01-19T20:47:14.309Z,15.39
2023-01-19T20:49:44.209Z,15.96
2023-01-19T20:52:14.037Z,15.01
2023-01-19T20:54:43.990Z,15.01
2023-01-19T20:57:13.938Z,14.25
2023-01-19T20:59:43.779Z,15.01
2023-01-19T21:02:15.134Z,14.44
2023-01-19T21:04:45.132Z,13.87
2023-01-19T21:07:15.029Z,14.63
2023-01-19T21:09:43.672Z,14.82
2023-01-19T21:12:17.348Z,12.54
2023-01-19T21:14:46.700Z,11.97
2023-01-19T21:17:15.741Z,14.82
2023-01-19T21:19:45.741Z,12.92
2023-01-19T21:22:15.680Z,12.92
2023-01-19T21:24:47.540Z,15.20
2023-01-19T21:27:17.467Z,12.92
2023-01-19T21:29:50.135Z,14.25
2023-01-19T21:32:18.773Z,12.92
2023-01-19T21:34:48.120Z,13.30
2023-01-19T21:37:16.080Z,15.77
2023-01-19T21:39:44.030Z,15.77
2023-01-19T21:42:15.475Z,14.06
2023-01-19T21:44:44.295Z,15.96
2023-01-19T21:47:12.425Z,14.06
2023-01-19T21:49:41.548Z,14.25
2023-01-19T21:52:09.636Z,15.01
2023-01-19T21:54:37.835Z,15.77
2023-01-19T21:57:06.111Z,14.82
2023-01-19T21:59:34.584Z,16.15
2023-01-19T22:02:03.391Z,13.68
2023-01-19T22:04:31.740Z,16.15
2023-01-19T22:06:59.780Z,13.87
2023-01-19T22:09:28.191Z,15.58
2023-01-19T22:11:57.425Z,13.87
2023-01-19T22:14:25.237Z,14.44
2023-01-19T22:16:54.207Z,15.39
2023-01-19T22:19:22.097Z,16.15
2023-01-19T22:21:50.573Z,14.44
2023-01-19T22:24:18.854Z,15.58
2023-01-19T22:26:47.554Z,15.77
2023-01-19T22:29:15.716Z,15.01
2023-01-19T22:31:45.789Z,14.82
2023-01-19T22:34:17.146Z,15.96
2023-01-19T22:36:44.866Z,15.77
2023-01-19T22:39:15.147Z,15.96
2023-01-19T22:41:47.013Z,15.96
2023-01-19T22:44:22.559Z,14.25
2023-01-19T22:46:55.963Z,14.82
2023-01-19T22:49:23.363Z,15.39
2023-01-19T22:51:50.589Z,15.96
2023-01-19T22:54:22.931Z,15.01
2023-01-19T22:56:52.335Z,16.34
2023-01-19T22:59:22.095Z,16.53
2023-01-19T23:01:51.952Z,16.91
2023-01-19T23:04:22.031Z,17.86
2023-01-19T23:06:52.016Z,15.01
2023-01-19T23:09:22.459Z,17.48
2023-01-19T23:11:52.967Z,17.48
2023-01-19T23:14:22.676Z,16.72
2023-01-19T23:16:52.971Z,16.53
2023-01-19T23:19:22.842Z,15.96
2023-01-19T23:21:53.292Z,16.15
2023-01-19T23:24:22.973Z,15.39
2023-01-19T23:26:52.807Z,15.58
2023-01-19T23:29:23.317Z,16.15
2023-01-19T23:31:53.447Z,13.68
2023-01-19T23:34:22.711Z,15.20
2023-01-19T23:36:50.774Z,15.20
2023-01-19T23:39:22.454Z,16.53
2023-01-19T23:41:51.026Z,17.48
2023-01-19T23:44:19.353Z,16.91
2023-01-19T23:46:48.590Z,16.15
2023-01-19T23:49:17.063Z,15.58
2023-01-19T23:51:44.732Z,15.39
2023-01-19T23:54:13.152Z,15.39
2023-01-19T23:56:42.784Z,15.39
2023-01-19T23:59:14.096Z,15.39
